createdAt,value
2023-02-02T00:00:38.630Z,94.89
2023-02-02T00:01:38.575Z,94.60
2023-02-02T00:02:38.546Z,94.60
2023-02-02T00:03:38.480Z,94.70
2023-02-02T00:04:38.399Z,94.42
2023-02-02T00:05:38.335Z,94.60
2023-02-02T00:06:38.267Z,94.79
2023-02-02T00:07:38.210Z,95.36
2023-02-02T00:08:38.156Z,95.12
2023-02-02T00:09:38.089Z,95.12
2023-02-02T00:10:38.033Z,95.46
2023-02-02T00:11:37.971Z,95.17
2023-02-02T00:12:37.908Z,94.60
2023-02-02T00:13:37.841Z,94.98
2023-02-02T00:14:37.791Z,95.27
2023-02-02T00:15:37.721Z,94.22
2023-02-02T00:16:37.659Z,94.51
2023-02-02T00:17:37.598Z,94.70
2023-02-02T00:18:37.552Z,94.79
2023-02-02T00:19:37.487Z,94.89
2023-02-02T00:20:37.418Z,95.17
2023-02-02T00:21:37.362Z,94.98
2023-02-02T00:22:37.296Z,94.89
2023-02-02T00:23:37.260Z,94.79
2023-02-02T00:24:37.176Z,94.89
2023-02-02T00:25:37.115Z,94.98
2023-02-02T00:26:37.084Z,95.46
2023-02-02T00:27:37.006Z,95.08
2023-02-02T00:28:36.934Z,94.79
2023-02-02T00:29:36.872Z,94.98
2023-02-02T00:30:36.838Z,94.89
2023-02-02T00:31:36.775Z,95.17
2023-02-02T00:32:36.694Z,94.98
2023-02-02T00:33:36.629Z,95.46
2023-02-02T00:34:43.498Z,95.03
2023-02-02T00:35:36.522Z,95.27
2023-02-02T00:36:36.456Z,95.08
2023-02-02T00:37:36.391Z,95.08
2023-02-02T00:38:36.347Z,94.98
2023-02-02T00:39:36.267Z,95.17
2023-02-02T00:40:36.213Z,95.08
2023-02-02T00:41:36.169Z,95.27
2023-02-02T00:42:36.092Z,95.36
2023-02-02T00:43:36.035Z,95.17
2023-02-02T00:44:35.971Z,95.17
2023-02-02T00:45:35.936Z,95.08
2023-02-02T00:46:35.845Z,95.17
2023-02-02T00:47:35.783Z,95.36
2023-02-02T00:48:35.724Z,95.27
2023-02-02T00:49:35.666Z,94.89
2023-02-02T00:50:35.602Z,95.17
2023-02-02T00:51:35.548Z,94.79
2023-02-02T00:52:35.481Z,95.17
2023-02-02T00:53:35.423Z,95.36
2023-02-02T00:54:35.375Z,95.36
2023-02-02T00:55:35.301Z,95.46
2023-02-02T00:56:35.237Z,95.08
2023-02-02T00:57:35.190Z,95.17
2023-02-02T00:58:35.130Z,95.17
2023-02-02T00:59:35.071Z,94.98
2023-02-02T01:00:34.995Z,95.27
2023-02-02T01:01:34.942Z,95.46
2023-02-02T01:02:34.880Z,95.56
2023-02-02T01:03:34.821Z,95.65
2023-02-02T01:04:34.800Z,95.56
2023-02-02T01:05:34.694Z,95.46
2023-02-02T01:06:34.646Z,95.46
2023-02-02T01:07:34.577Z,95.46
2023-02-02T01:08:34.514Z,95.65
2023-02-02T01:09:34.453Z,95.46
2023-02-02T01:10:34.388Z,95.75
2023-02-02T01:11:34.344Z,95.56
2023-02-02T01:12:34.277Z,95.94
2023-02-02T01:13:34.216Z,95.75
2023-02-02T01:14:34.149Z,95.75
2023-02-02T01:15:34.097Z,96.03
2023-02-02T01:16:34.078Z,95.94
2023-02-02T01:17:33.971Z,95.75
2023-02-02T01:18:33.911Z,95.75
2023-02-02T01:19:33.846Z,95.75
2023-02-02T01:20:33.795Z,96.12
2023-02-02T01:21:33.732Z,95.94
2023-02-02T01:22:33.665Z,96.12
2023-02-02T01:23:33.606Z,96.03
2023-02-02T01:24:33.550Z,95.84
2023-02-02T01:25:33.491Z,96.03
2023-02-02T01:26:33.463Z,96.12
2023-02-02T01:27:33.369Z,96.03
2023-02-02T01:28:33.300Z,95.94
2023-02-02T01:29:33.249Z,95.84
2023-02-02T01:30:33.177Z,95.84
2023-02-02T01:31:33.201Z,95.75
2023-02-02T01:32:33.072Z,95.75
2023-02-02T01:33:32.999Z,95.79
2023-02-02T01:34:32.936Z,95.84
2023-02-02T01:35:32.878Z,95.84
2023-02-02T01:36:32.825Z,95.75
2023-02-02T01:37:32.771Z,95.65
2023-02-02T01:38:32.694Z,95.46
2023-02-02T01:39:34.273Z,95.75
2023-02-02T01:40:32.575Z,95.94
2023-02-02T01:41:32.517Z,95.84
2023-02-02T01:42:32.461Z,96.03
2023-02-02T01:43:32.395Z,96.31
2023-02-02T01:44:32.333Z,96.26
2023-02-02T01:45:32.325Z,96.41
2023-02-02T01:46:32.218Z,96.03
2023-02-02T01:47:32.164Z,96.03
2023-02-02T01:48:32.090Z,96.12
2023-02-02T01:49:32.031Z,95.84
2023-02-02T01:50:31.970Z,96.31
2023-02-02T01:51:31.920Z,96.41
2023-02-02T01:52:31.848Z,96.31
2023-02-02T01:53:31.796Z,96.31
2023-02-02T01:54:31.733Z,96.22
2023-02-02T01:55:31.670Z,96.31
2023-02-02T01:56:31.611Z,96.41
2023-02-02T01:57:31.561Z,96.31
2023-02-02T01:58:31.486Z,96.65
2023-02-02T01:59:31.479Z,96.41
2023-02-02T02:00:31.365Z,96.50
2023-02-02T02:01:31.336Z,96.60
2023-02-02T02:02:31.294Z,96.22
2023-02-02T02:03:31.189Z,96.22
2023-02-02T02:04:31.126Z,97.17
2023-02-02T02:05:31.061Z,97.08
2023-02-02T02:06:30.999Z,97.17
2023-02-02T02:07:30.944Z,97.27
2023-02-02T02:08:30.889Z,97.17
2023-02-02T02:09:30.819Z,97.17
2023-02-02T02:10:30.766Z,97.08
2023-02-02T02:11:30.697Z,96.89
2023-02-02T02:12:30.636Z,96.98
2023-02-02T02:13:30.577Z,97.27
2023-02-02T02:14:30.576Z,97.17
2023-02-02T02:15:30.458Z,96.98
2023-02-02T02:16:30.411Z,97.08
2023-02-02T02:17:30.348Z,96.89
2023-02-02T02:18:30.278Z,96.79
2023-02-02T02:19:30.231Z,96.89
2023-02-02T02:20:30.153Z,97.08
2023-02-02T02:21:30.102Z,97.17
2023-02-02T02:22:30.031Z,97.08
2023-02-02T02:23:29.986Z,97.27
2023-02-02T02:24:29.916Z,97.36
2023-02-02T02:25:29.853Z,96.98
2023-02-02T02:26:29.841Z,97.17
2023-02-02T02:27:29.753Z,97.17
2023-02-02T02:28:29.669Z,97.17
2023-02-02T02:29:29.610Z,97.27
2023-02-02T02:30:29.553Z,97.17
2023-02-02T02:31:29.613Z,97.45
2023-02-02T02:32:29.435Z,97.93
2023-02-02T02:33:29.367Z,97.55
2023-02-02T02:34:29.311Z,97.74
2023-02-02T02:35:29.261Z,97.93
2023-02-02T02:36:29.185Z,97.55
2023-02-02T02:37:29.128Z,97.36
2023-02-02T02:38:29.070Z,97.93
2023-02-02T02:39:29.010Z,98.12
2023-02-02T02:40:28.945Z,97.64
2023-02-02T02:41:28.900Z,97.55
2023-02-02T02:42:28.822Z,97.55
2023-02-02T02:43:28.762Z,97.55
2023-02-02T02:44:28.699Z,97.64
2023-02-02T02:45:28.647Z,97.83
2023-02-02T02:46:28.706Z,97.64
2023-02-02T02:47:28.519Z,97.64
2023-02-02T02:48:28.484Z,98.12
2023-02-02T02:49:28.406Z,97.93
2023-02-02T02:50:28.337Z,97.74
2023-02-02T02:51:28.287Z,97.83
2023-02-02T02:52:28.227Z,97.83
2023-02-02T02:53:28.164Z,97.55
2023-02-02T02:54:28.100Z,98.12
2023-02-02T02:55:28.038Z,97.83
2023-02-02T02:56:27.982Z,97.74
2023-02-02T02:57:27.920Z,97.64
2023-02-02T02:58:27.854Z,97.74
2023-02-02T02:59:27.798Z,97.74
2023-02-02T03:00:27.755Z,97.64
2023-02-02T03:01:27.727Z,97.55
2023-02-02T03:02:27.656Z,97.74
2023-02-02T03:03:27.558Z,98.31
2023-02-02T03:04:27.491Z,98.31
2023-02-02T03:05:27.464Z,98.41
2023-02-02T03:06:27.370Z,98.41
2023-02-02T03:07:27.319Z,97.74
2023-02-02T03:08:27.254Z,97.83
2023-02-02T03:09:27.194Z,98.31
2023-02-02T03:10:27.128Z,98.41
2023-02-02T03:11:27.074Z,98.69
2023-02-02T03:12:27.008Z,98.50
2023-02-02T03:13:26.961Z,97.83
2023-02-02T03:14:26.891Z,98.41
2023-02-02T03:15:27.058Z,98.88
2023-02-02T03:16:26.765Z,98.50
2023-02-02T03:17:26.705Z,97.93
2023-02-02T03:18:26.645Z,98.22
2023-02-02T03:19:26.590Z,98.12
2023-02-02T03:20:26.525Z,98.60
2023-02-02T03:21:26.463Z,98.03
2023-02-02T03:22:26.407Z,98.31
2023-02-02T03:23:26.355Z,98.03
2023-02-02T03:24:26.282Z,98.22
2023-02-02T03:25:26.618Z,98.41
2023-02-02T03:26:26.204Z,98.22
2023-02-02T03:27:26.106Z,98.31
2023-02-02T03:28:26.039Z,97.74
2023-02-02T03:29:25.980Z,98.60
2023-02-02T03:30:25.970Z,98.41
2023-02-02T03:31:25.916Z,98.50
2023-02-02T03:32:25.797Z,98.12
2023-02-02T03:33:25.740Z,98.60
2023-02-02T03:34:25.685Z,98.22
2023-02-02T03:35:25.976Z,98.22
2023-02-02T03:36:25.572Z,98.60
2023-02-02T03:37:25.496Z,98.79
2023-02-02T03:38:25.435Z,98.69
2023-02-02T03:39:25.388Z,98.50
2023-02-02T03:40:25.320Z,98.60
2023-02-02T03:41:25.256Z,98.12
2023-02-02T03:42:25.197Z,98.12
2023-02-02T03:43:25.142Z,98.12
2023-02-02T03:44:25.077Z,97.93
2023-02-02T03:45:25.352Z,98.03
2023-02-02T03:46:24.992Z,98.50
2023-02-02T03:47:24.889Z,98.50
2023-02-02T03:48:24.842Z,98.50
2023-02-02T03:49:24.771Z,98.69
2023-02-02T03:50:24.718Z,98.41
2023-02-02T03:51:24.650Z,98.69
2023-02-02T03:52:24.594Z,98.69
2023-02-02T03:53:24.534Z,98.79
2023-02-02T03:54:24.468Z,98.69
2023-02-02T03:55:24.729Z,98.22
2023-02-02T03:56:24.345Z,98.50
2023-02-02T03:57:24.286Z,98.79
2023-02-02T03:58:24.225Z,98.69
2023-02-02T03:59:24.169Z,98.69
2023-02-02T04:00:24.109Z,98.88
2023-02-02T04:01:24.055Z,98.60
2023-02-02T04:02:23.984Z,98.79
2023-02-02T04:03:23.925Z,98.69
2023-02-02T04:04:23.862Z,98.31
2023-02-02T04:05:24.108Z,98.69
2023-02-02T04:06:23.747Z,98.50
2023-02-02T04:07:23.687Z,98.60
2023-02-02T04:08:23.625Z,98.50
2023-02-02T04:09:23.562Z,98.79
2023-02-02T04:10:23.508Z,98.31
2023-02-02T04:11:23.534Z,98.69
2023-02-02T04:12:23.379Z,98.50
2023-02-02T04:13:23.337Z,98.69
2023-02-02T04:14:23.262Z,98.50
2023-02-02T04:15:23.524Z,98.60
2023-02-02T04:16:23.205Z,98.69
2023-02-02T04:17:23.078Z,98.79
2023-02-02T04:18:23.022Z,98.88
2023-02-02T04:19:22.975Z,98.88
2023-02-02T04:20:22.911Z,98.69
2023-02-02T04:21:22.852Z,98.88
2023-02-02T04:22:22.773Z,98.79
2023-02-02T04:23:22.717Z,98.69
2023-02-02T04:24:22.659Z,98.79
2023-02-02T04:25:22.847Z,98.88
2023-02-02T04:26:22.557Z,98.50
2023-02-02T04:27:22.606Z,98.69
2023-02-02T04:28:22.412Z,98.60
2023-02-02T04:29:22.359Z,98.79
2023-02-02T04:30:22.293Z,98.60
2023-02-02T04:31:22.281Z,98.60
2023-02-02T04:32:22.182Z,98.50
2023-02-02T04:33:22.120Z,98.60
2023-02-02T04:34:22.054Z,98.88
2023-02-02T04:35:22.240Z,98.50
2023-02-02T04:36:21.939Z,98.50
2023-02-02T04:37:21.879Z,98.50
2023-02-02T04:38:21.815Z,98.60
2023-02-02T04:39:21.748Z,98.50
2023-02-02T04:40:21.694Z,98.97
2023-02-02T04:41:21.628Z,98.50
2023-02-02T04:42:21.564Z,98.50
2023-02-02T04:43:21.531Z,98.79
2023-02-02T04:44:21.461Z,98.79
2023-02-02T04:45:21.403Z,98.97
2023-02-02T04:46:21.324Z,98.79
2023-02-02T04:47:21.264Z,99.07
2023-02-02T04:48:21.207Z,99.26
2023-02-02T04:49:21.152Z,99.16
2023-02-02T04:50:21.088Z,98.79
2023-02-02T04:51:21.028Z,98.31
2023-02-02T04:52:20.965Z,98.97
2023-02-02T04:53:20.907Z,98.88
2023-02-02T04:54:20.849Z,99.26
2023-02-02T04:55:20.786Z,99.26
2023-02-02T04:56:20.718Z,99.16
2023-02-02T04:57:20.661Z,98.79
2023-02-02T04:58:20.612Z,99.16
2023-02-02T04:59:20.545Z,99.16
2023-02-02T05:00:20.476Z,99.16
2023-02-02T05:01:20.460Z,98.88
2023-02-02T05:02:20.368Z,98.97
2023-02-02T05:03:20.302Z,99.26
2023-02-02T05:04:20.268Z,98.88
2023-02-02T05:05:20.176Z,99.26
2023-02-02T05:06:20.113Z,99.16
2023-02-02T05:07:20.062Z,99.07
2023-02-02T05:08:19.996Z,98.97
2023-02-02T05:09:19.941Z,99.16
2023-02-02T05:10:19.887Z,99.07
2023-02-02T05:11:19.820Z,99.07
2023-02-02T05:12:19.766Z,98.88
2023-02-02T05:13:19.733Z,99.26
2023-02-02T05:14:19.636Z,99.55
2023-02-02T05:15:19.578Z,99.26
2023-02-02T05:16:19.577Z,99.26
2023-02-02T05:17:19.455Z,99.16
2023-02-02T05:18:19.398Z,99.16
2023-02-02T05:19:19.350Z,99.07
2023-02-02T05:20:19.269Z,99.07
2023-02-02T05:21:19.236Z,99.16
2023-02-02T05:22:19.181Z,99.16
2023-02-02T05:23:19.105Z,98.97
2023-02-02T05:24:19.038Z,98.97
2023-02-02T05:25:18.967Z,98.97
2023-02-02T05:26:19.025Z,99.84
2023-02-02T05:27:18.849Z,98.88
2023-02-02T05:28:18.803Z,98.88
2023-02-02T05:29:18.730Z,99.45
2023-02-02T05:30:18.665Z,99.16
2023-02-02T05:31:18.653Z,98.97
2023-02-02T05:32:18.544Z,98.88
2023-02-02T05:33:18.486Z,99.55
2023-02-02T05:34:18.430Z,99.74
2023-02-02T05:35:18.367Z,99.74
2023-02-02T05:36:18.360Z,99.16
2023-02-02T05:37:18.244Z,98.97
2023-02-02T05:38:18.181Z,99.16
2023-02-02T05:39:18.132Z,98.79
2023-02-02T05:40:18.103Z,99.07
2023-02-02T05:41:18.005Z,98.97
2023-02-02T05:42:17.971Z,98.97
2023-02-02T05:43:17.889Z,98.97
2023-02-02T05:44:17.821Z,99.45
2023-02-02T05:45:17.766Z,99.36
2023-02-02T05:46:17.740Z,99.16
2023-02-02T05:47:17.654Z,99.16
2023-02-02T05:48:17.631Z,98.79
2023-02-02T05:49:17.526Z,99.26
2023-02-02T05:50:17.473Z,99.45
2023-02-02T05:51:17.408Z,99.26
2023-02-02T05:52:17.336Z,98.88
2023-02-02T05:53:17.293Z,99.26
2023-02-02T05:54:17.281Z,99.26
2023-02-02T05:55:17.160Z,99.26
2023-02-02T05:56:17.107Z,98.97
2023-02-02T05:57:17.032Z,98.88
2023-02-02T05:58:16.975Z,98.97
2023-02-02T05:59:16.915Z,99.74
2023-02-02T06:00:16.852Z,99.74
2023-02-02T06:01:16.792Z,99.64
2023-02-02T06:02:16.738Z,99.55
2023-02-02T06:03:16.896Z,99.93
2023-02-02T06:04:31.571Z,99.74
2023-02-02T06:05:16.557Z,99.64
2023-02-02T06:06:16.503Z,99.55
2023-02-02T06:07:16.527Z,99.84
2023-02-02T06:08:16.368Z,99.84
2023-02-02T06:09:16.320Z,99.74
2023-02-02T06:10:16.250Z,99.74
2023-02-02T06:11:16.259Z,99.74
2023-02-02T06:12:16.132Z,99.84
2023-02-02T06:13:16.071Z,99.74
2023-02-02T06:14:16.006Z,99.74
2023-02-02T06:15:15.945Z,99.74
2023-02-02T06:16:15.984Z,99.55
2023-02-02T06:17:15.824Z,99.74
2023-02-02T06:18:15.778Z,99.55
2023-02-02T06:19:15.710Z,99.84
2023-02-02T06:20:15.649Z,99.36
2023-02-02T06:21:15.589Z,99.36
2023-02-02T06:22:15.522Z,99.55
2023-02-02T06:23:15.523Z,99.36
2023-02-02T06:24:15.406Z,99.74
2023-02-02T06:25:15.350Z,99.74
2023-02-02T06:26:15.294Z,99.55
2023-02-02T06:27:15.227Z,99.74
2023-02-02T06:28:15.160Z,99.84
2023-02-02T06:29:15.107Z,99.74
2023-02-02T06:30:15.037Z,99.36
2023-02-02T06:31:15.064Z,99.45
2023-02-02T06:32:14.918Z,99.55
2023-02-02T06:33:14.859Z,99.93
2023-02-02T06:34:14.820Z,99.07
2023-02-02T06:35:14.739Z,99.84
2023-02-02T06:36:14.690Z,99.99
2023-02-02T06:37:14.614Z,99.93
2023-02-02T06:38:14.559Z,99.84
2023-02-02T06:39:14.498Z,99.93
2023-02-02T06:40:14.440Z,99.84
2023-02-02T06:41:14.384Z,99.74
2023-02-02T06:42:21.133Z,99.84
2023-02-02T06:43:14.254Z,99.64
2023-02-02T06:44:14.192Z,99.55
2023-02-02T06:45:14.139Z,99.45
2023-02-02T06:46:14.143Z,99.55
2023-02-02T06:47:14.011Z,99.93
2023-02-02T06:48:13.960Z,99.93
2023-02-02T06:49:13.893Z,99.74
2023-02-02T06:50:13.829Z,99.74
2023-02-02T06:51:13.784Z,99.64
2023-02-02T06:52:13.711Z,99.93
2023-02-02T06:53:13.648Z,99.84
2023-02-02T06:54:13.595Z,99.84
2023-02-02T06:55:13.531Z,99.93
2023-02-02T06:56:13.472Z,99.74
2023-02-02T06:57:13.408Z,99.55
2023-02-02T06:58:13.402Z,99.84
2023-02-02T06:59:13.292Z,99.74
2023-02-02T07:00:13.240Z,99.55
2023-02-02T07:01:13.207Z,99.84
2023-02-02T07:02:13.128Z,99.99
2023-02-02T07:03:13.042Z,99.74
2023-02-02T07:04:12.990Z,99.99
2023-02-02T07:05:12.923Z,99.99
2023-02-02T07:06:12.862Z,99.64
2023-02-02T07:07:12.826Z,99.64
2023-02-02T07:08:12.753Z,99.93
2023-02-02T07:09:12.686Z,99.74
2023-02-02T07:11:13.040Z,99.74
2023-02-02T07:11:15.829Z,99.55
2023-02-02T07:12:12.506Z,99.84
2023-02-02T07:13:12.445Z,99.84
2023-02-02T07:14:12.380Z,99.84
2023-02-02T07:15:12.316Z,99.84
2023-02-02T07:16:12.273Z,99.93
2023-02-02T07:17:12.220Z,99.84
2023-02-02T07:18:12.145Z,99.74
2023-02-02T07:19:12.083Z,99.99
2023-02-02T07:20:12.022Z,99.99
2023-02-02T07:21:11.962Z,99.93
2023-02-02T07:22:11.900Z,99.64
2023-02-02T07:23:11.847Z,99.99
2023-02-02T07:24:11.782Z,99.74
2023-02-02T07:25:11.715Z,99.64
2023-02-02T07:26:11.662Z,99.99
2023-02-02T07:27:12.591Z,99.64
2023-02-02T07:28:11.544Z,99.84
2023-02-02T07:29:11.477Z,99.99
2023-02-02T07:30:11.419Z,99.55
2023-02-02T07:31:11.497Z,99.74
2023-02-02T07:32:11.294Z,99.64
2023-02-02T07:33:11.235Z,99.74
2023-02-02T07:34:11.176Z,99.99
2023-02-02T07:35:11.108Z,99.64
2023-02-02T07:36:11.051Z,99.64
2023-02-02T07:37:10.989Z,99.99
2023-02-02T07:38:10.935Z,99.55
2023-02-02T07:39:10.881Z,99.99
2023-02-02T07:40:10.810Z,99.99
2023-02-02T07:41:10.748Z,99.99
2023-02-02T07:42:10.688Z,99.99
2023-02-02T07:43:10.631Z,99.99
2023-02-02T07:44:10.569Z,99.99
2023-02-02T07:45:26.896Z,99.99
2023-02-02T07:46:10.530Z,99.99
2023-02-02T07:47:10.399Z,99.99
2023-02-02T07:48:10.323Z,99.99
2023-02-02T07:49:10.265Z,99.99
2023-02-02T07:50:10.213Z,99.99
2023-02-02T07:51:10.145Z,99.99
2023-02-02T07:52:10.100Z,99.99
2023-02-02T07:53:10.027Z,99.99
2023-02-02T07:54:09.969Z,99.99
2023-02-02T07:55:14.874Z,99.84
2023-02-02T07:56:09.839Z,99.99
2023-02-02T07:57:09.786Z,99.99
2023-02-02T07:58:09.721Z,99.99
2023-02-02T07:59:09.663Z,99.99
2023-02-02T08:00:09.601Z,99.99
2023-02-02T08:01:09.608Z,99.99
2023-02-02T08:02:09.516Z,99.99
2023-02-02T08:03:09.511Z,99.99
2023-02-02T08:04:09.360Z,99.99
2023-02-02T08:05:09.316Z,99.99
2023-02-02T08:06:09.238Z,99.99
2023-02-02T08:07:09.175Z,99.99
2023-02-02T08:08:09.122Z,99.99
2023-02-02T08:09:09.072Z,99.84
2023-02-02T08:10:08.997Z,99.99
2023-02-02T08:11:08.941Z,99.99
2023-02-02T08:12:08.880Z,99.99
2023-02-02T08:13:08.814Z,99.99
2023-02-02T08:14:08.779Z,99.99
2023-02-02T08:15:08.734Z,99.99
2023-02-02T08:16:08.828Z,99.99
2023-02-02T08:17:08.576Z,99.99
2023-02-02T08:18:08.517Z,99.99
2023-02-02T08:19:08.458Z,99.93
2023-02-02T08:20:08.397Z,99.84
2023-02-02T08:21:08.362Z,99.99
2023-02-02T08:22:08.275Z,99.99
2023-02-02T08:23:08.207Z,99.99
2023-02-02T08:24:08.159Z,99.99
2023-02-02T08:25:08.098Z,99.99
2023-02-02T08:26:08.034Z,99.99
2023-02-02T08:27:07.984Z,99.93
2023-02-02T08:28:07.909Z,99.99
2023-02-02T08:29:07.861Z,99.99
2023-02-02T08:30:07.796Z,99.99
2023-02-02T08:31:07.810Z,99.99
2023-02-02T08:32:07.669Z,99.99
2023-02-02T08:33:07.604Z,99.99
2023-02-02T08:34:07.550Z,99.99
2023-02-02T08:35:07.483Z,99.99
2023-02-02T08:36:07.426Z,99.99
2023-02-02T08:37:07.372Z,99.99
2023-02-02T08:38:07.311Z,99.99
2023-02-02T08:39:07.254Z,99.99
2023-02-02T08:40:07.215Z,99.99
2023-02-02T08:41:07.134Z,99.99
2023-02-02T08:42:07.063Z,99.99
2023-02-02T08:43:07.013Z,99.99
2023-02-02T08:44:06.951Z,99.99
2023-02-02T08:46:04.028Z,99.74
2023-02-02T08:46:06.825Z,99.99
2023-02-02T08:47:06.815Z,99.99
2023-02-02T08:48:12.033Z,99.99
2023-02-02T08:49:06.637Z,99.99
2023-02-02T08:50:06.577Z,99.99
2023-02-02T08:51:06.521Z,99.99
2023-02-02T08:52:06.466Z,99.99
2023-02-02T08:53:06.404Z,99.99
2023-02-02T08:54:06.336Z,99.99
2023-02-02T08:55:06.280Z,99.99
2023-02-02T08:56:06.223Z,99.99
2023-02-02T08:57:06.163Z,99.99
2023-02-02T08:58:06.099Z,99.99
2023-02-02T08:59:06.040Z,99.99
2023-02-02T09:00:05.978Z,99.99
2023-02-02T09:01:06.008Z,99.99
2023-02-02T09:02:05.889Z,99.99
2023-02-02T09:03:05.795Z,99.99
2023-02-02T09:04:05.740Z,99.99
2023-02-02T09:05:05.672Z,99.99
2023-02-02T09:06:05.617Z,99.99
2023-02-02T09:07:05.552Z,99.99
2023-02-02T09:08:05.493Z,99.99
2023-02-02T09:09:05.434Z,99.99
2023-02-02T09:10:05.382Z,99.99
2023-02-02T09:11:05.313Z,99.99
2023-02-02T09:12:05.249Z,99.99
2023-02-02T09:13:05.191Z,99.99
2023-02-02T09:14:05.133Z,99.99
2023-02-02T09:15:05.083Z,99.99
2023-02-02T09:16:05.191Z,99.99
2023-02-02T09:17:04.952Z,99.99
2023-02-02T09:18:04.885Z,99.99
2023-02-02T09:19:04.831Z,99.99
2023-02-02T09:20:04.784Z,99.99
2023-02-02T09:21:04.714Z,99.99
2023-02-02T09:22:04.661Z,99.99
2023-02-02T09:23:04.586Z,99.99
2023-02-02T09:24:04.529Z,99.99
2023-02-02T09:25:04.464Z,99.99
2023-02-02T09:26:04.410Z,99.99
2023-02-02T09:27:04.369Z,99.99
2023-02-02T09:28:04.287Z,99.99
2023-02-02T09:29:04.219Z,99.99
2023-02-02T09:30:04.160Z,99.99
2023-02-02T09:31:04.268Z,99.99
2023-02-02T09:32:04.101Z,99.99
2023-02-02T09:33:03.988Z,99.99
2023-02-02T09:34:03.917Z,99.99
2023-02-02T09:35:03.864Z,99.99
2023-02-02T09:36:03.805Z,99.99
2023-02-02T09:37:03.745Z,99.99
2023-02-02T09:38:03.681Z,99.99
2023-02-02T09:39:03.634Z,99.99
2023-02-02T09:40:03.557Z,99.99
2023-02-02T09:41:03.524Z,99.99
2023-02-02T09:42:03.436Z,99.99
2023-02-02T09:43:03.380Z,99.99
2023-02-02T09:44:03.317Z,99.99
2023-02-02T09:45:03.268Z,99.99
2023-02-02T09:46:03.295Z,99.93
2023-02-02T09:47:03.156Z,99.99
2023-02-02T09:48:03.072Z,99.99
2023-02-02T09:49:03.023Z,99.99
2023-02-02T09:50:02.969Z,99.99
2023-02-02T09:51:02.900Z,99.99
2023-02-02T09:52:02.833Z,99.99
2023-02-02T09:53:02.775Z,99.93
2023-02-02T09:54:02.726Z,99.99
2023-02-02T09:55:02.656Z,99.99
2023-02-02T09:56:02.609Z,99.99
2023-02-02T09:57:02.535Z,99.99
2023-02-02T09:58:02.471Z,99.99
2023-02-02T09:59:18.780Z,99.99
2023-02-02T10:00:02.347Z,99.99
2023-02-02T10:01:02.346Z,99.99
2023-02-02T10:02:02.227Z,99.99
2023-02-02T10:03:02.182Z,99.99
2023-02-02T10:04:02.147Z,99.99
2023-02-02T10:05:02.047Z,99.99
2023-02-02T10:06:01.996Z,99.99
2023-02-02T10:07:01.931Z,99.99
2023-02-02T10:08:01.874Z,99.99
2023-02-02T10:09:01.805Z,99.99
2023-02-02T10:10:01.749Z,99.99
2023-02-02T10:11:01.687Z,99.99
2023-02-02T10:12:01.622Z,99.99
2023-02-02T10:13:01.589Z,99.99
2023-02-02T10:14:01.503Z,99.99
2023-02-02T10:15:01.504Z,99.99
2023-02-02T10:16:01.848Z,99.93
2023-02-02T10:17:01.328Z,99.99
2023-02-02T10:18:01.258Z,99.99
2023-02-02T10:19:01.259Z,99.99
2023-02-02T10:20:01.140Z,99.99
2023-02-02T10:21:01.100Z,99.99
2023-02-02T10:22:01.025Z,99.99
2023-02-02T10:23:00.966Z,99.99
2023-02-02T10:24:02.399Z,99.99
2023-02-02T10:25:00.846Z,99.99
2023-02-02T10:26:00.805Z,99.99
2023-02-02T10:27:00.768Z,99.99
2023-02-02T10:28:00.658Z,99.99
2023-02-02T10:29:00.610Z,99.99
2023-02-02T10:30:00.542Z,99.99
2023-02-02T10:31:00.690Z,99.99
2023-02-02T10:32:00.559Z,99.99
2023-02-02T10:33:01.514Z,99.99
2023-02-02T10:34:00.293Z,99.99
2023-02-02T10:35:12.638Z,99.99
2023-02-02T10:36:00.185Z,99.99
2023-02-02T10:37:00.129Z,99.99
2023-02-02T10:38:00.067Z,99.99
2023-02-02T10:38:59.993Z,99.99
2023-02-02T10:39:59.968Z,99.99
2023-02-02T10:40:59.873Z,99.99
2023-02-02T10:41:59.822Z,99.99
2023-02-02T10:42:59.752Z,99.99
2023-02-02T10:43:59.704Z,99.99
2023-02-02T10:44:59.634Z,99.99
2023-02-02T10:45:59.595Z,99.99
2023-02-02T10:46:59.512Z,99.99
2023-02-02T10:47:59.455Z,99.99
2023-02-02T10:49:01.638Z,99.99
2023-02-02T10:49:59.330Z,99.99
2023-02-02T10:50:59.281Z,99.99
2023-02-02T10:51:59.260Z,99.99
2023-02-02T10:52:59.158Z,99.99
2023-02-02T10:53:59.088Z,99.99
2023-02-02T10:55:00.938Z,99.99
2023-02-02T10:55:58.966Z,99.99
2023-02-02T10:56:58.919Z,99.99
2023-02-02T10:57:58.849Z,99.99
2023-02-02T10:58:58.791Z,99.99
2023-02-02T10:59:58.732Z,99.99
2023-02-02T11:00:58.675Z,99.99
2023-02-02T11:02:03.738Z,99.99
2023-02-02T11:02:58.595Z,99.99
2023-02-02T11:03:58.491Z,99.99
2023-02-02T11:04:58.427Z,99.99
2023-02-02T11:05:58.362Z,99.99
2023-02-02T11:07:00.531Z,99.99
2023-02-02T11:07:58.249Z,99.99
2023-02-02T11:08:58.202Z,99.99
2023-02-02T11:09:58.127Z,99.99
2023-02-02T11:10:58.098Z,99.99
2023-02-02T11:11:58.007Z,99.99
2023-02-02T11:13:00.062Z,99.99
2023-02-02T11:13:57.884Z,99.99
2023-02-02T11:14:57.832Z,99.99
2023-02-02T11:16:01.736Z,99.99
2023-02-02T11:16:57.727Z,99.99
2023-02-02T11:17:57.639Z,99.99
2023-02-02T11:18:57.585Z,99.99
2023-02-02T11:19:57.525Z,99.99
2023-02-02T11:20:57.466Z,99.99
2023-02-02T11:21:57.399Z,99.99
2023-02-02T11:22:57.344Z,99.99
2023-02-02T11:23:57.280Z,99.99
2023-02-02T11:24:57.220Z,99.99
2023-02-02T11:25:57.161Z,99.99
2023-02-02T11:26:57.179Z,99.99
2023-02-02T11:27:57.042Z,99.99
2023-02-02T11:28:58.729Z,99.99
2023-02-02T11:29:56.923Z,99.99
2023-02-02T11:30:56.962Z,99.99
2023-02-02T11:31:56.951Z,99.99
2023-02-02T11:32:56.747Z,99.99
2023-02-02T11:33:56.709Z,99.99
2023-02-02T11:34:56.624Z,99.99
2023-02-02T11:35:56.558Z,99.99
2023-02-02T11:36:56.499Z,99.99
2023-02-02T11:37:56.446Z,99.99
2023-02-02T11:38:56.380Z,99.99
2023-02-02T11:39:56.312Z,99.99
2023-02-02T11:40:56.252Z,99.99
2023-02-02T11:41:56.201Z,99.99
2023-02-02T11:42:56.132Z,99.99
2023-02-02T11:43:56.077Z,99.99
2023-02-02T11:44:56.013Z,99.99
2023-02-02T11:45:55.956Z,99.99
2023-02-02T11:46:55.927Z,99.99
2023-02-02T11:47:55.834Z,99.99
2023-02-02T11:48:55.776Z,99.99
2023-02-02T11:49:55.717Z,99.99
2023-02-02T11:50:55.717Z,99.99
2023-02-02T11:51:55.597Z,99.99
2023-02-02T11:52:55.535Z,99.99
2023-02-02T11:53:55.475Z,99.99
2023-02-02T11:54:55.418Z,99.99
2023-02-02T11:55:55.347Z,99.99
2023-02-02T11:56:55.291Z,99.99
2023-02-02T11:57:55.227Z,99.99
2023-02-02T11:58:55.169Z,99.99
2023-02-02T11:59:55.111Z,99.99
2023-02-02T12:00:55.051Z,99.99
2023-02-02T12:01:55.004Z,99.99
2023-02-02T12:02:54.933Z,99.99
2023-02-02T12:03:54.902Z,99.99
2023-02-02T12:04:54.811Z,99.99
2023-02-02T12:05:54.755Z,99.99
2023-02-02T12:06:54.688Z,99.99
2023-02-02T12:07:54.675Z,99.99
2023-02-02T12:08:54.576Z,99.99
2023-02-02T12:09:54.508Z,99.99
2023-02-02T12:10:54.457Z,99.99
2023-02-02T12:11:54.390Z,99.99
2023-02-02T12:12:54.330Z,99.99
2023-02-02T12:13:54.280Z,99.99
2023-02-02T12:14:54.213Z,99.99
2023-02-02T12:15:54.194Z,99.99
2023-02-02T12:16:54.089Z,99.99
2023-02-02T12:17:54.021Z,99.99
2023-02-02T12:18:54.172Z,99.99
2023-02-02T12:19:53.902Z,99.99
2023-02-02T12:20:53.840Z,99.99
2023-02-02T12:21:53.779Z,99.99
2023-02-02T12:22:53.737Z,99.99
2023-02-02T12:23:53.663Z,99.99
2023-02-02T12:24:53.600Z,99.99
2023-02-02T12:25:53.552Z,99.99
2023-02-02T12:26:53.654Z,99.99
2023-02-02T12:27:53.419Z,99.99
2023-02-02T12:28:53.375Z,99.99
2023-02-02T12:29:53.308Z,99.99
2023-02-02T12:30:53.282Z,99.99
2023-02-02T12:31:53.231Z,99.99
2023-02-02T12:32:53.134Z,99.99
2023-02-02T12:33:53.062Z,99.99
2023-02-02T12:34:52.999Z,99.99
2023-02-02T12:35:52.944Z,99.99
2023-02-02T12:36:52.887Z,99.99
2023-02-02T12:37:52.814Z,99.99
2023-02-02T12:38:52.766Z,99.99
2023-02-02T12:39:52.695Z,99.99
2023-02-02T12:40:52.648Z,99.99
2023-02-02T12:41:52.577Z,99.99
2023-02-02T12:42:52.521Z,99.99
2023-02-02T12:43:52.463Z,99.99
2023-02-02T12:44:52.401Z,99.99
2023-02-02T12:45:52.367Z,99.99
2023-02-02T12:46:52.279Z,99.99
2023-02-02T12:47:52.213Z,99.99
2023-02-02T12:48:52.154Z,99.99
2023-02-02T12:49:52.094Z,99.99
2023-02-02T12:50:52.038Z,99.99
2023-02-02T12:51:51.976Z,99.99